createdAt,value
2017-02-14T00:00:12.632Z,962.42
2017-02-14T00:01:13.307Z,962.40
2017-02-14T00:02:13.496Z,962.44
2017-02-14T00:03:13.247Z,962.43
2017-02-14T00:04:12.660Z,962.42
2017-02-14T00:05:12.482Z,962.43
2017-02-14T00:06:12.476Z,962.42
2017-02-14T00:07:12.494Z,962.41
2017-02-14T00:08:12.666Z,962.39
2017-02-14T00:09:13.505Z,962.41
2017-02-14T00:10:12.666Z,962.43
2017-02-14T00:11:13.758Z,962.47
2017-02-14T00:12:16.705Z,962.52
2017-02-14T00:13:12.789Z,962.50
2017-02-14T00:14:12.775Z,962.55
2017-02-14T00:15:12.591Z,962.52
2017-02-14T00:16:11.481Z,962.57
2017-02-14T00:17:12.826Z,962.56
2017-02-14T00:18:17.970Z,962.54
2017-02-14T00:19:12.002Z,962.54
2017-02-14T00:20:12.596Z,962.54
2017-02-14T00:21:12.918Z,962.53
2017-02-14T00:22:12.140Z,962.49
2017-02-14T00:23:12.258Z,962.49
2017-02-14T00:24:12.419Z,962.51
2017-02-14T00:25:13.151Z,962.51
2017-02-14T00:26:12.257Z,962.50
2017-02-14T00:27:12.731Z,962.50
2017-02-14T00:28:13.381Z,962.49
2017-02-14T00:29:13.056Z,962.53
2017-02-14T00:30:12.165Z,962.52
2017-02-14T00:31:12.684Z,962.53
2017-02-14T00:32:14.393Z,962.55
2017-02-14T00:33:12.933Z,962.54
2017-02-14T00:34:12.135Z,962.53
2017-02-14T00:35:12.093Z,962.51
2017-02-14T00:36:12.228Z,962.55
2017-02-14T00:37:12.233Z,962.54
2017-02-14T00:38:12.675Z,962.58
2017-02-14T00:39:12.471Z,962.59
2017-02-14T00:40:12.657Z,962.63
2017-02-14T00:41:15.161Z,962.60
2017-02-14T00:42:14.694Z,962.58
2017-02-14T00:43:15.022Z,962.59
2017-02-14T00:44:13.783Z,962.63
2017-02-14T00:45:12.707Z,962.64
2017-02-14T00:46:12.091Z,962.64
2017-02-14T00:47:13.084Z,962.67
2017-02-14T00:48:12.887Z,962.71
2017-02-14T00:49:09.438Z,962.69
2017-02-14T00:50:15.118Z,962.70
2017-02-14T00:51:12.323Z,962.72
2017-02-14T00:52:13.247Z,962.66
2017-02-14T00:53:13.476Z,962.67
2017-02-14T00:54:13.219Z,962.72
2017-02-14T00:55:12.226Z,962.74
2017-02-14T00:56:11.170Z,962.78
2017-02-14T00:57:13.828Z,962.78
2017-02-14T00:58:12.013Z,962.71
2017-02-14T00:59:12.174Z,962.75
2017-02-14T01:00:12.586Z,962.71
2017-02-14T01:01:13.308Z,962.72
2017-02-14T01:02:12.881Z,962.75
2017-02-14T01:03:16.020Z,962.73
2017-02-14T01:04:14.454Z,962.74
2017-02-14T01:05:12.637Z,962.77
2017-02-14T01:06:13.968Z,962.80
2017-02-14T01:07:13.995Z,962.76
2017-02-14T01:08:14.949Z,962.82
2017-02-14T01:09:13.457Z,962.84
2017-02-14T01:10:13.369Z,962.80
2017-02-14T01:11:14.457Z,962.82
2017-02-14T01:12:14.277Z,962.83
2017-02-14T01:13:12.372Z,962.81
2017-02-14T01:14:13.287Z,962.78
2017-02-14T01:15:14.596Z,962.81
2017-02-14T01:16:14.826Z,962.82
2017-02-14T01:17:14.782Z,962.86
2017-02-14T01:18:18.084Z,962.80
2017-02-14T01:19:13.926Z,962.84
2017-02-14T01:20:10.889Z,962.84
2017-02-14T01:21:15.534Z,962.84
2017-02-14T01:22:13.436Z,962.80
2017-02-14T01:23:14.040Z,962.82
2017-02-14T01:24:15.195Z,962.80
2017-02-14T01:25:13.946Z,962.85
2017-02-14T01:26:14.985Z,962.85
2017-02-14T01:27:12.181Z,962.87
2017-02-14T01:28:14.063Z,962.85
2017-02-14T01:29:12.103Z,962.93
2017-02-14T01:30:12.742Z,962.89
2017-02-14T01:31:12.907Z,962.89
2017-02-14T01:32:11.910Z,962.90
2017-02-14T01:33:14.993Z,962.91
2017-02-14T01:34:13.330Z,962.94
2017-02-14T01:35:09.698Z,962.93
2017-02-14T01:36:14.208Z,962.92
2017-02-14T01:37:12.416Z,962.92
2017-02-14T01:38:13.114Z,962.93
2017-02-14T01:39:10.775Z,962.97
2017-02-14T01:40:12.089Z,962.95
2017-02-14T01:41:12.163Z,962.96
2017-02-14T01:42:13.156Z,962.95
2017-02-14T01:43:13.441Z,962.96
2017-02-14T01:44:14.680Z,962.94
2017-02-14T01:45:14.254Z,962.96
2017-02-14T01:46:13.182Z,962.97
2017-02-14T01:47:13.382Z,962.96
2017-02-14T01:48:10.821Z,962.94
2017-02-14T01:49:12.878Z,962.89
2017-02-14T01:50:10.857Z,962.90
2017-02-14T01:51:14.547Z,962.98
2017-02-14T01:52:12.549Z,962.92
2017-02-14T01:53:14.787Z,962.96
2017-02-14T01:54:13.197Z,962.95
2017-02-14T01:55:13.941Z,962.93
2017-02-14T01:56:09.661Z,962.94
2017-02-14T01:57:10.824Z,962.93
2017-02-14T01:58:12.274Z,962.89
2017-02-14T01:59:15.455Z,962.87
2017-02-14T02:00:13.128Z,962.82
2017-02-14T02:01:13.305Z,962.84
2017-02-14T02:02:12.765Z,962.86
2017-02-14T02:03:12.467Z,962.87
2017-02-14T02:04:13.326Z,962.87
2017-02-14T02:05:12.916Z,962.89
2017-02-14T02:06:13.784Z,962.88
2017-02-14T02:07:13.403Z,962.86
2017-02-14T02:08:12.992Z,962.92
2017-02-14T02:09:12.087Z,962.91
2017-02-14T02:10:13.407Z,962.91
2017-02-14T02:11:13.837Z,962.93
2017-02-14T02:12:14.544Z,962.93
2017-02-14T02:13:12.904Z,962.96
2017-02-14T02:14:12.847Z,962.94
2017-02-14T02:15:12.660Z,962.96
2017-02-14T02:16:12.993Z,963.02
2017-02-14T02:17:12.281Z,963.01
2017-02-14T02:18:11.063Z,963.02
2017-02-14T02:19:13.864Z,963.08
2017-02-14T02:20:12.694Z,963.04
2017-02-14T02:21:14.354Z,963.07
2017-02-14T02:22:13.344Z,963.10
2017-02-14T02:23:15.043Z,963.13
2017-02-14T02:24:12.222Z,963.14
2017-02-14T02:25:12.283Z,963.14
2017-02-14T02:26:10.995Z,963.14
2017-02-14T02:27:14.524Z,963.16
2017-02-14T02:28:13.004Z,963.18
2017-02-14T02:29:12.660Z,963.21
2017-02-14T02:30:13.452Z,963.19
2017-02-14T02:31:12.641Z,963.24
2017-02-14T02:32:11.628Z,963.20
2017-02-14T02:33:13.356Z,963.22
2017-02-14T02:34:12.732Z,963.20
2017-02-14T02:35:12.774Z,963.22
2017-02-14T02:36:13.259Z,963.20
2017-02-14T02:37:12.631Z,963.18
2017-02-14T02:38:13.065Z,963.15
2017-02-14T02:39:12.863Z,963.17
2017-02-14T02:40:12.635Z,963.17
2017-02-14T02:41:14.668Z,963.19
2017-02-14T02:42:14.355Z,963.18
2017-02-14T02:43:10.947Z,963.22
2017-02-14T02:44:13.773Z,963.21
2017-02-14T02:45:12.623Z,963.15
2017-02-14T02:46:13.254Z,963.15
2017-02-14T02:47:13.230Z,963.15
2017-02-14T02:48:13.087Z,963.20
2017-02-14T02:49:11.892Z,963.18
2017-02-14T02:50:13.514Z,963.17
2017-02-14T02:51:13.294Z,963.19
2017-02-14T02:52:12.825Z,963.20
2017-02-14T02:53:12.634Z,963.17
2017-02-14T02:54:13.080Z,963.18
2017-02-14T02:55:13.173Z,963.15
2017-02-14T02:56:13.209Z,963.17
2017-02-14T02:57:13.134Z,963.17
2017-02-14T02:58:13.117Z,963.20
2017-02-14T02:59:13.577Z,963.20
2017-02-14T03:00:14.306Z,963.11
2017-02-14T03:01:13.201Z,963.22
2017-02-14T03:02:14.610Z,963.20
2017-02-14T03:03:14.531Z,963.16
2017-02-14T03:04:13.385Z,963.22
2017-02-14T03:05:11.073Z,963.26
2017-02-14T03:06:12.263Z,963.28
2017-02-14T03:07:12.315Z,963.29
2017-02-14T03:08:12.448Z,963.27
2017-02-14T03:09:12.885Z,963.30
2017-02-14T03:10:13.632Z,963.24
2017-02-14T03:11:16.199Z,963.22
2017-02-14T03:12:14.519Z,963.29
2017-02-14T03:13:12.783Z,963.27
2017-02-14T03:14:12.650Z,963.31
2017-02-14T03:15:09.872Z,963.29
2017-02-14T03:16:12.962Z,963.30
2017-02-14T03:17:10.887Z,963.27
2017-02-14T03:18:12.516Z,963.33
2017-02-14T03:19:13.373Z,963.31
2017-02-14T03:20:09.574Z,963.26
2017-02-14T03:21:13.185Z,963.31
2017-02-14T03:22:14.958Z,963.27
2017-02-14T03:23:12.871Z,963.29
2017-02-14T03:24:12.623Z,963.27
2017-02-14T03:25:13.744Z,963.30
2017-02-14T03:26:14.488Z,963.31
2017-02-14T03:27:11.097Z,963.28
2017-02-14T03:28:19.927Z,963.27
2017-02-14T03:29:11.855Z,963.26
2017-02-14T03:30:13.436Z,963.25
2017-02-14T03:31:11.227Z,963.32
2017-02-14T03:32:13.114Z,963.30
2017-02-14T03:33:12.208Z,963.29
2017-02-14T03:34:13.317Z,963.34
2017-02-14T03:35:12.551Z,963.33
2017-02-14T03:36:13.612Z,963.33
2017-02-14T03:37:13.543Z,963.32
2017-02-14T03:38:12.807Z,963.32
2017-02-14T03:39:12.840Z,963.36
2017-02-14T03:40:11.782Z,963.35
2017-02-14T03:41:12.054Z,963.39
2017-02-14T03:42:11.249Z,963.37
2017-02-14T03:43:13.244Z,963.41
2017-02-14T03:44:13.864Z,963.46
2017-02-14T03:45:11.899Z,963.44
2017-02-14T03:46:13.035Z,963.42
2017-02-14T03:47:12.173Z,963.45
2017-02-14T03:48:12.871Z,963.40
2017-02-14T03:49:12.723Z,963.46
2017-02-14T03:50:13.433Z,963.46
2017-02-14T03:51:12.438Z,963.42
2017-02-14T03:52:14.125Z,963.46
2017-02-14T03:53:12.263Z,963.48
2017-02-14T03:54:13.717Z,963.53
2017-02-14T03:55:14.167Z,963.48
2017-02-14T03:56:12.274Z,963.50
2017-02-14T03:57:12.926Z,963.57
2017-02-14T03:58:12.262Z,963.53
2017-02-14T03:59:12.292Z,963.52
2017-02-14T04:00:12.850Z,963.55
2017-02-14T04:01:12.343Z,963.59
2017-02-14T04:02:12.873Z,963.61
2017-02-14T04:03:10.358Z,963.63
2017-02-14T04:04:13.184Z,963.57
2017-02-14T04:05:13.503Z,963.56
2017-02-14T04:06:13.728Z,963.57
2017-02-14T04:07:13.535Z,963.62
2017-02-14T04:08:13.575Z,963.61
2017-02-14T04:09:12.871Z,963.67
2017-02-14T04:10:10.353Z,963.65
2017-02-14T04:11:13.104Z,963.64
2017-02-14T04:12:12.296Z,963.60
2017-02-14T04:13:09.629Z,963.62
2017-02-14T04:14:12.614Z,963.62
2017-02-14T04:15:13.278Z,963.69
2017-02-14T04:16:12.325Z,963.70
2017-02-14T04:17:15.155Z,963.68
2017-02-14T04:18:12.881Z,963.68
2017-02-14T04:19:13.662Z,963.69
2017-02-14T04:20:13.879Z,963.69
2017-02-14T04:21:12.278Z,963.70
2017-02-14T04:22:12.267Z,963.70
2017-02-14T04:23:12.265Z,963.72
2017-02-14T04:24:13.970Z,963.71
2017-02-14T04:25:12.474Z,963.68
2017-02-14T04:26:13.841Z,963.69
2017-02-14T04:27:10.974Z,963.74
2017-02-14T04:28:13.283Z,963.71
2017-02-14T04:29:13.208Z,963.75
2017-02-14T04:30:12.721Z,963.70
2017-02-14T04:31:11.775Z,963.68
2017-02-14T04:32:11.794Z,963.68
2017-02-14T04:33:12.657Z,963.70
2017-02-14T04:34:12.637Z,963.67
2017-02-14T04:35:12.659Z,963.70
2017-02-14T04:36:12.828Z,963.70
2017-02-14T04:37:13.506Z,963.73
2017-02-14T04:38:13.175Z,963.79
2017-02-14T04:39:12.254Z,963.83
2017-02-14T04:40:18.424Z,963.84
2017-02-14T04:41:12.458Z,963.88
2017-02-14T04:42:13.475Z,963.89
2017-02-14T04:43:12.856Z,963.87
2017-02-14T04:44:12.672Z,963.86
2017-02-14T04:45:13.272Z,963.85
2017-02-14T04:46:13.281Z,963.81
2017-02-14T04:47:13.193Z,963.80
2017-02-14T04:48:12.262Z,963.82
2017-02-14T04:49:12.881Z,963.84
2017-02-14T04:50:13.486Z,963.83
2017-02-14T04:51:11.393Z,963.86
2017-02-14T04:52:12.767Z,963.88
2017-02-14T04:53:11.756Z,963.87
2017-02-14T04:54:12.681Z,963.89
2017-02-14T04:55:12.686Z,963.86
2017-02-14T04:56:12.635Z,963.90
2017-02-14T04:57:14.448Z,963.88
2017-02-14T04:58:13.261Z,963.85
2017-02-14T04:59:11.087Z,963.91
2017-02-14T05:00:13.178Z,963.89
2017-02-14T05:01:12.811Z,963.90
2017-02-14T05:02:13.533Z,963.91
2017-02-14T05:03:12.787Z,963.90
2017-02-14T05:04:10.824Z,963.85
2017-02-14T05:05:12.605Z,963.88
2017-02-14T05:06:12.999Z,963.85
2017-02-14T05:07:12.634Z,963.88
2017-02-14T05:08:13.158Z,963.86
2017-02-14T05:09:13.145Z,963.87
2017-02-14T05:10:10.940Z,963.87
2017-02-14T05:11:15.705Z,963.87
2017-02-14T05:12:13.964Z,963.94
2017-02-14T05:13:12.845Z,963.93
2017-02-14T05:14:09.114Z,963.94
2017-02-14T05:15:13.871Z,963.97
2017-02-14T05:16:12.392Z,963.96
2017-02-14T05:17:14.193Z,963.99
2017-02-14T05:18:14.239Z,963.98
2017-02-14T05:19:12.584Z,963.99
2017-02-14T05:20:12.673Z,964.01
2017-02-14T05:21:10.297Z,964.02
2017-02-14T05:22:13.218Z,964.00
2017-02-14T05:23:12.864Z,964.06
2017-02-14T05:24:10.786Z,964.09
2017-02-14T05:25:17.617Z,964.14
2017-02-14T05:26:17.421Z,964.17
2017-02-14T05:27:13.936Z,964.18
2017-02-14T05:28:14.131Z,964.20
2017-02-14T05:29:13.855Z,964.20
2017-02-14T05:30:11.765Z,964.20
2017-02-14T05:31:12.006Z,964.20
2017-02-14T05:32:12.616Z,964.22
2017-02-14T05:33:14.126Z,964.17
2017-02-14T05:34:12.721Z,964.20
2017-02-14T05:35:11.836Z,964.19
2017-02-14T05:36:13.170Z,964.23
2017-02-14T05:37:12.945Z,964.22
2017-02-14T05:38:13.844Z,964.22
2017-02-14T05:39:12.096Z,964.21
2017-02-14T05:40:13.108Z,964.22
2017-02-14T05:41:12.102Z,964.25
2017-02-14T05:42:13.706Z,964.28
2017-02-14T05:43:13.329Z,964.34
2017-02-14T05:44:12.343Z,964.34
2017-02-14T05:45:13.042Z,964.39
2017-02-14T05:46:12.738Z,964.37
2017-02-14T05:47:13.856Z,964.37
2017-02-14T05:48:12.182Z,964.37
2017-02-14T05:49:12.313Z,964.40
2017-02-14T05:50:13.351Z,964.40
2017-02-14T05:51:12.953Z,964.38
2017-02-14T05:52:12.716Z,964.38
2017-02-14T05:53:12.814Z,964.43
2017-02-14T05:54:13.491Z,964.43
2017-02-14T05:55:14.176Z,964.45
2017-02-14T05:56:12.117Z,964.41
2017-02-14T05:57:12.845Z,964.42
2017-02-14T05:58:12.003Z,964.49
2017-02-14T05:59:12.969Z,964.46
2017-02-14T06:00:13.413Z,964.50
2017-02-14T06:01:13.140Z,964.50
2017-02-14T06:02:12.383Z,964.50
2017-02-14T06:03:12.507Z,964.50
2017-02-14T06:04:13.303Z,964.51
2017-02-14T06:05:13.770Z,964.52
2017-02-14T06:06:11.869Z,964.52
2017-02-14T06:07:11.941Z,964.53
2017-02-14T06:08:11.815Z,964.51
2017-02-14T06:09:12.887Z,964.50
2017-02-14T06:10:09.055Z,964.49
2017-02-14T06:11:13.677Z,964.46
2017-02-14T06:12:11.856Z,964.54
2017-02-14T06:13:13.946Z,964.58
2017-02-14T06:14:12.047Z,964.58
2017-02-14T06:15:13.485Z,964.61
2017-02-14T06:16:12.817Z,964.63
2017-02-14T06:17:13.792Z,964.62
2017-02-14T06:18:12.324Z,964.68
2017-02-14T06:19:12.487Z,964.65
2017-02-14T06:20:13.471Z,964.69
2017-02-14T06:21:12.849Z,964.68
2017-02-14T06:22:13.775Z,964.72
2017-02-14T06:23:12.685Z,964.70
2017-02-14T06:24:12.832Z,964.74
2017-02-14T06:25:12.498Z,964.70
2017-02-14T06:26:14.401Z,964.70
2017-02-14T06:27:11.511Z,964.75
2017-02-14T06:28:13.627Z,964.77
2017-02-14T06:29:12.714Z,964.84
2017-02-14T06:30:12.127Z,964.77
2017-02-14T06:31:12.111Z,964.84
2017-02-14T06:32:10.968Z,964.88
2017-02-14T06:33:14.044Z,964.88
2017-02-14T06:34:13.820Z,964.96
2017-02-14T06:35:12.682Z,964.98
2017-02-14T06:36:12.846Z,964.97
2017-02-14T06:37:12.641Z,964.96
2017-02-14T06:38:12.975Z,964.99
2017-02-14T06:39:11.021Z,964.96
2017-02-14T06:40:12.663Z,965.01
2017-02-14T06:41:12.675Z,965.01
2017-02-14T06:42:13.211Z,964.96
2017-02-14T06:43:11.450Z,964.96
2017-02-14T06:44:13.459Z,964.98
2017-02-14T06:45:12.810Z,964.96
2017-02-14T06:46:12.510Z,965.00
2017-02-14T06:47:13.261Z,965.00
2017-02-14T06:48:12.275Z,965.01
2017-02-14T06:49:13.027Z,965.09
2017-02-14T06:50:12.476Z,965.18
2017-02-14T06:51:12.964Z,965.17
2017-02-14T06:52:12.592Z,965.23
2017-02-14T06:53:12.101Z,965.27
2017-02-14T06:54:12.399Z,965.25
2017-02-14T06:55:14.227Z,965.25
2017-02-14T06:56:13.002Z,965.29
2017-02-14T06:57:13.219Z,965.27
2017-02-14T06:58:12.514Z,965.26
2017-02-14T06:59:14.120Z,965.28
2017-02-14T07:00:13.019Z,965.32
2017-02-14T07:01:12.135Z,965.32
2017-02-14T07:02:12.951Z,965.38
2017-02-14T07:03:12.098Z,965.37
2017-02-14T07:04:13.210Z,965.36
2017-02-14T07:05:12.887Z,965.38
2017-02-14T07:06:12.536Z,965.35
2017-02-14T07:07:13.353Z,965.38
2017-02-14T07:08:13.753Z,965.40
2017-02-14T07:09:12.392Z,965.42
2017-02-14T07:10:13.274Z,965.45
2017-02-14T07:11:12.589Z,965.43
2017-02-14T07:12:14.572Z,965.43
2017-02-14T07:13:12.770Z,965.44
2017-02-14T07:14:10.850Z,965.46
2017-02-14T07:15:12.639Z,965.46
2017-02-14T07:16:12.852Z,965.48
2017-02-14T07:17:12.655Z,965.53
2017-02-14T07:18:13.325Z,965.48
2017-02-14T07:19:14.105Z,965.52
2017-02-14T07:20:12.876Z,965.51
2017-02-14T07:21:10.744Z,965.54
2017-02-14T07:22:12.698Z,965.51
2017-02-14T07:23:13.436Z,965.47
2017-02-14T07:24:13.202Z,965.49
2017-02-14T07:25:12.844Z,965.47
2017-02-14T07:26:12.477Z,965.45
2017-02-14T07:27:13.352Z,965.49
2017-02-14T07:28:12.517Z,965.51
2017-02-14T07:29:12.672Z,965.51
2017-02-14T07:30:13.458Z,965.55
2017-02-14T07:31:12.639Z,965.52
2017-02-14T07:32:13.297Z,965.60
2017-02-14T07:33:13.051Z,965.62
2017-02-14T07:34:12.688Z,965.65
2017-02-14T07:35:12.680Z,965.65
2017-02-14T07:36:15.217Z,965.63
2017-02-14T07:37:12.881Z,965.65
2017-02-14T07:38:11.457Z,965.63
2017-02-14T07:39:12.254Z,965.66
2017-02-14T07:40:12.459Z,965.69
2017-02-14T07:41:11.887Z,965.68
2017-02-14T07:42:12.671Z,965.69
2017-02-14T07:43:12.633Z,965.70
2017-02-14T07:44:12.640Z,965.65
2017-02-14T07:45:13.084Z,965.69
2017-02-14T07:46:12.655Z,965.70
2017-02-14T07:47:13.471Z,965.65
2017-02-14T07:48:12.656Z,965.66
2017-02-14T07:49:13.546Z,965.63
2017-02-14T07:50:13.333Z,965.65
2017-02-14T07:51:13.166Z,965.64
2017-02-14T07:52:12.331Z,965.66
2017-02-14T07:53:12.757Z,965.69
2017-02-14T07:54:13.632Z,965.72
2017-02-14T07:55:12.614Z,965.75
2017-02-14T07:56:11.367Z,965.71
2017-02-14T07:57:10.774Z,965.79
2017-02-14T07:58:12.137Z,965.79
2017-02-14T07:59:12.173Z,965.80
2017-02-14T08:00:12.864Z,965.76
2017-02-14T08:01:12.998Z,965.79
2017-02-14T08:02:12.220Z,965.79
2017-02-14T08:03:13.966Z,965.80
2017-02-14T08:04:13.756Z,965.82
2017-02-14T08:05:11.714Z,965.89
2017-02-14T08:06:13.196Z,965.84
2017-02-14T08:07:12.320Z,965.90
2017-02-14T08:08:11.553Z,965.85
2017-02-14T08:09:12.672Z,965.84
2017-02-14T08:10:13.835Z,965.83
2017-02-14T08:11:12.935Z,965.85
2017-02-14T08:12:12.543Z,965.80
2017-02-14T08:13:13.521Z,965.80
2017-02-14T08:14:14.249Z,965.83
2017-02-14T08:15:14.025Z,965.83
2017-02-14T08:16:12.094Z,965.83
2017-02-14T08:17:12.996Z,965.87
2017-02-14T08:18:13.923Z,965.86
2017-02-14T08:19:12.042Z,965.87
2017-02-14T08:20:12.172Z,965.89
2017-02-14T08:21:12.972Z,965.93
2017-02-14T08:22:12.744Z,965.89
2017-02-14T08:23:11.663Z,965.90
2017-02-14T08:24:11.564Z,965.90
2017-02-14T08:25:12.753Z,965.93
2017-02-14T08:26:11.800Z,965.93
2017-02-14T08:27:11.785Z,965.92
2017-02-14T08:28:13.742Z,965.88
2017-02-14T08:29:11.832Z,965.93
2017-02-14T08:30:12.167Z,965.96
2017-02-14T08:31:11.379Z,965.97
2017-02-14T08:32:14.485Z,965.96
2017-02-14T08:33:13.841Z,965.96
2017-02-14T08:34:13.147Z,965.97
2017-02-14T08:35:13.005Z,965.99
2017-02-14T08:36:13.595Z,965.96
2017-02-14T08:37:11.276Z,965.97
2017-02-14T08:38:13.623Z,965.91
2017-02-14T08:39:12.935Z,965.94
2017-02-14T08:40:13.437Z,965.95
2017-02-14T08:41:12.883Z,965.96
2017-02-14T08:42:12.050Z,966.02
2017-02-14T08:43:12.401Z,966.04
2017-02-14T08:44:13.144Z,966.08
2017-02-14T08:45:12.305Z,966.05
2017-02-14T08:46:11.018Z,966.09
2017-02-14T08:47:12.448Z,966.06
2017-02-14T08:48:12.657Z,966.11
2017-02-14T08:49:13.317Z,966.14
2017-02-14T08:50:12.697Z,966.11
2017-02-14T08:51:12.704Z,966.10
2017-02-14T08:52:14.650Z,966.11
2017-02-14T08:53:12.655Z,966.10
2017-02-14T08:54:14.494Z,966.11
2017-02-14T08:55:13.766Z,966.12
2017-02-14T08:56:12.513Z,966.11
2017-02-14T08:57:12.542Z,966.13
2017-02-14T08:58:12.711Z,966.18
2017-02-14T08:59:11.706Z,966.19
2017-02-14T09:00:14.510Z,966.23
2017-02-14T09:01:13.256Z,966.19
2017-02-14T09:02:09.986Z,966.23
2017-02-14T09:03:12.653Z,966.26
2017-02-14T09:04:13.234Z,966.25
2017-02-14T09:05:12.582Z,966.23
2017-02-14T09:06:13.309Z,966.28
2017-02-14T09:07:13.250Z,966.28
2017-02-14T09:08:12.273Z,966.27
2017-02-14T09:09:13.182Z,966.24
2017-02-14T09:10:12.277Z,966.23
2017-02-14T09:11:13.202Z,966.24
2017-02-14T09:12:13.235Z,966.22
2017-02-14T09:13:14.095Z,966.25
2017-02-14T09:14:12.272Z,966.24
2017-02-14T09:15:13.923Z,966.25
2017-02-14T09:16:12.082Z,966.27
2017-02-14T09:17:10.940Z,966.24
2017-02-14T09:18:12.566Z,966.23
2017-02-14T09:19:14.435Z,966.22
2017-02-14T09:20:11.221Z,966.20
2017-02-14T09:21:12.956Z,966.23
2017-02-14T09:22:12.191Z,966.23
2017-02-14T09:23:12.307Z,966.23
2017-02-14T09:24:12.460Z,966.23
2017-02-14T09:25:14.077Z,966.28
2017-02-14T09:26:13.382Z,966.24
2017-02-14T09:27:14.044Z,966.25
2017-02-14T09:28:12.276Z,966.26
2017-02-14T09:29:13.028Z,966.23
2017-02-14T09:30:11.988Z,966.23
2017-02-14T09:31:11.856Z,966.31
2017-02-14T09:32:12.652Z,966.23
2017-02-14T09:33:12.743Z,966.25
2017-02-14T09:34:12.006Z,966.24
2017-02-14T09:35:13.697Z,966.31
2017-02-14T09:36:12.712Z,966.31
2017-02-14T09:37:12.855Z,966.33
2017-02-14T09:38:12.086Z,966.36
2017-02-14T09:39:12.883Z,966.34
2017-02-14T09:40:11.751Z,966.35
2017-02-14T09:41:13.387Z,966.32
2017-02-14T09:42:13.390Z,966.34
2017-02-14T09:43:13.806Z,966.37
2017-02-14T09:44:13.809Z,966.37
2017-02-14T09:45:11.615Z,966.40
2017-02-14T09:46:12.917Z,966.44
2017-02-14T09:47:12.093Z,966.41
2017-02-14T09:48:12.283Z,966.42
2017-02-14T09:49:13.251Z,966.34
2017-02-14T09:50:12.786Z,966.37
2017-02-14T09:51:12.523Z,966.35
2017-02-14T09:52:12.870Z,966.27
2017-02-14T09:53:11.873Z,966.31
2017-02-14T09:54:12.985Z,966.33
2017-02-14T09:55:12.227Z,966.32
2017-02-14T09:56:12.292Z,966.30
2017-02-14T09:57:15.056Z,966.25
2017-02-14T09:58:12.289Z,966.28
2017-02-14T09:59:12.478Z,966.29
2017-02-14T10:00:13.000Z,966.25
2017-02-14T10:01:12.562Z,966.17
2017-02-14T10:02:13.092Z,966.25
2017-02-14T10:03:12.852Z,966.21
2017-02-14T10:04:12.086Z,966.20
2017-02-14T10:05:12.947Z,966.26
2017-02-14T10:06:12.084Z,966.25
2017-02-14T10:07:13.036Z,966.24
2017-02-14T10:08:12.640Z,966.21
2017-02-14T10:09:13.337Z,966.28
2017-02-14T10:10:12.926Z,966.26
2017-02-14T10:11:12.801Z,966.32
2017-02-14T10:12:11.781Z,966.32
2017-02-14T10:13:11.827Z,966.34
2017-02-14T10:14:10.784Z,966.38
2017-02-14T10:15:12.124Z,966.31
2017-02-14T10:16:10.325Z,966.37
2017-02-14T10:17:12.736Z,966.37
2017-02-14T10:18:11.962Z,966.37
2017-02-14T10:19:12.089Z,966.34
2017-02-14T10:20:12.087Z,966.32
2017-02-14T10:21:12.673Z,966.33
2017-02-14T10:22:13.462Z,966.32
2017-02-14T10:23:12.934Z,966.37
2017-02-14T10:24:12.128Z,966.38
2017-02-14T10:25:13.968Z,966.36
2017-02-14T10:26:13.902Z,966.38
2017-02-14T10:27:11.974Z,966.39
2017-02-14T10:28:12.308Z,966.34
2017-02-14T10:29:13.196Z,966.39
2017-02-14T10:30:12.217Z,966.37
2017-02-14T10:31:13.267Z,966.40
2017-02-14T10:32:13.247Z,966.39
2017-02-14T10:33:12.862Z,966.38
2017-02-14T10:34:12.835Z,966.38
2017-02-14T10:35:12.459Z,966.41
2017-02-14T10:36:10.216Z,966.42
2017-02-14T10:37:12.636Z,966.37
2017-02-14T10:38:14.573Z,966.41
2017-02-14T10:39:12.694Z,966.37
2017-02-14T10:40:12.641Z,966.40
2017-02-14T10:41:13.478Z,966.44
2017-02-14T10:42:13.751Z,966.40
2017-02-14T10:43:11.779Z,966.44
2017-02-14T10:44:13.384Z,966.44
2017-02-14T10:45:13.087Z,966.43
2017-02-14T10:46:14.167Z,966.46
2017-02-14T10:47:12.356Z,966.47
2017-02-14T10:48:14.159Z,966.49
2017-02-14T10:49:13.306Z,966.44
2017-02-14T10:50:12.875Z,966.44
2017-02-14T10:51:13.713Z,966.44
2017-02-14T10:52:12.544Z,966.43
2017-02-14T10:53:12.792Z,966.42
2017-02-14T10:54:10.829Z,966.38
2017-02-14T10:55:12.200Z,966.41
2017-02-14T10:56:12.235Z,966.43
2017-02-14T10:57:12.038Z,966.45
2017-02-14T10:58:12.284Z,966.46
2017-02-14T10:59:12.328Z,966.43
2017-02-14T11:00:12.466Z,966.43
2017-02-14T11:01:12.650Z,966.42
2017-02-14T11:02:12.861Z,966.39
2017-02-14T11:03:12.045Z,966.36
2017-02-14T11:04:12.813Z,966.35
2017-02-14T11:05:10.566Z,966.40
2017-02-14T11:06:13.126Z,966.40
2017-02-14T11:07:12.098Z,966.35
2017-02-14T11:08:12.282Z,966.36
2017-02-14T11:09:11.278Z,966.31
2017-02-14T11:10:12.463Z,966.28
2017-02-14T11:11:12.631Z,966.27
2017-02-14T11:12:15.758Z,966.25
2017-02-14T11:13:12.473Z,966.24
2017-02-14T11:14:12.683Z,966.18
2017-02-14T11:15:13.417Z,966.26
2017-02-14T11:16:11.049Z,966.21
2017-02-14T11:17:10.201Z,966.25
2017-02-14T11:18:12.688Z,966.28
2017-02-14T11:19:10.750Z,966.26
2017-02-14T11:20:12.478Z,966.20
2017-02-14T11:21:12.688Z,966.20
2017-02-14T11:22:12.795Z,966.23
2017-02-14T11:23:12.674Z,966.19
2017-02-14T11:24:13.371Z,966.17
2017-02-14T11:25:12.497Z,966.22
2017-02-14T11:26:13.345Z,966.24
2017-02-14T11:27:12.314Z,966.22
2017-02-14T11:28:10.574Z,966.16
2017-02-14T11:29:12.582Z,966.18
2017-02-14T11:30:13.186Z,966.17
2017-02-14T11:31:12.311Z,966.15
2017-02-14T11:32:12.484Z,966.18
2017-02-14T11:33:12.962Z,966.17
2017-02-14T11:34:12.104Z,966.16
2017-02-14T11:35:12.685Z,966.17
2017-02-14T11:36:12.745Z,966.17
2017-02-14T11:37:12.464Z,966.16
2017-02-14T11:38:11.324Z,966.14
2017-02-14T11:39:12.735Z,966.17
2017-02-14T11:40:10.886Z,966.15
2017-02-14T11:41:12.083Z,966.18
2017-02-14T11:42:12.988Z,966.17
2017-02-14T11:43:14.081Z,966.20
2017-02-14T11:44:12.181Z,966.14
2017-02-14T11:45:13.683Z,966.15
2017-02-14T11:46:12.822Z,966.15
2017-02-14T11:47:13.368Z,966.15
2017-02-14T11:48:13.207Z,966.12
2017-02-14T11:49:12.306Z,966.12
2017-02-14T11:50:12.888Z,966.05
2017-02-14T11:51:12.086Z,966.05
2017-02-14T11:52:12.179Z,966.01
2017-02-14T11:53:10.913Z,965.98
2017-02-14T11:54:10.897Z,965.96
2017-02-14T11:55:12.334Z,965.99
2017-02-14T11:56:13.354Z,965.98
2017-02-14T11:57:13.201Z,966.02
2017-02-14T11:58:12.950Z,966.07
2017-02-14T11:59:12.089Z,966.03
2017-02-14T12:00:12.502Z,966.03
2017-02-14T12:01:12.646Z,966.04
2017-02-14T12:02:13.508Z,966.04
2017-02-14T12:03:14.256Z,965.97
2017-02-14T12:04:12.087Z,965.99
2017-02-14T12:05:13.790Z,965.95
2017-02-14T12:06:11.942Z,965.93
2017-02-14T12:07:12.092Z,965.94
2017-02-14T12:08:13.905Z,965.92
2017-02-14T12:09:12.104Z,965.96
2017-02-14T12:10:12.774Z,965.98
2017-02-14T12:11:12.494Z,966.01
2017-02-14T12:12:12.653Z,965.98
2017-02-14T12:13:12.819Z,966.01
2017-02-14T12:14:11.836Z,966.05
2017-02-14T12:15:13.679Z,966.03
2017-02-14T12:16:12.866Z,966.01
2017-02-14T12:17:12.877Z,966.01
2017-02-14T12:18:12.232Z,966.05
2017-02-14T12:19:12.290Z,966.03
2017-02-14T12:20:13.623Z,966.05
2017-02-14T12:21:13.440Z,966.05
2017-02-14T12:22:12.437Z,966.04
2017-02-14T12:23:12.654Z,966.02
2017-02-14T12:24:13.386Z,966.02
2017-02-14T12:25:13.176Z,966.07
2017-02-14T12:26:13.779Z,966.06
2017-02-14T12:27:11.912Z,966.07
2017-02-14T12:28:12.116Z,966.05